Time;durP1;ratioP1;P1;durP2;ratioP2;P2;SDS_P1;SDS_P2;PMS_P1;PMS_P2;Temp;Humidity;BMP_temperature;BMP_pressure;BME280_temperature;BME280_humidity;BME280_pressure;Samples;Min_cycle;Max_cycle;Signal;HPM_P1;HPM_P2
2022/03/18 00:00:24;;;;;;;6.28;4.28;;;;;;;;;;1746390;81;21029;-69
2022/03/18 00:02:49;;;;;;;6.92;3.37;;;;;;;;;;1746524;82;21021;-69
2022/03/18 00:05:16;;;;;;;6.67;4.10;;;;;;;;;;1750772;82;21068;-69
2022/03/18 00:07:48;;;;;;;4.25;2.60;;;;;;;;;;1754408;82;21059;-69
2022/03/18 00:10:15;;;;;;;4.15;2.92;;;;;;;;;;1753720;82;21120;-69
2022/03/18 00:12:42;;;;;;;6.47;4.00;;;;;;;;;;1754253;82;21077;-69
2022/03/18 00:15:09;;;;;;;6.33;3.20;;;;;;;;;;1754359;82;21080;-69
2022/03/18 00:17:37;;;;;;;11.65;4.42;;;;;;;;;;1754153;82;21040;-69
2022/03/18 00:20:05;;;;;;;6.10;3.47;;;;;;;;;;1754359;82;21025;-69
2022/03/18 00:22:31;;;;;;;7.50;3.85;;;;;;;;;;1754061;82;21119;-69
2022/03/18 00:24:58;;;;;;;7.97;4.30;;;;;;;;;;1754401;82;21485;-69
2022/03/18 00:27:26;;;;;;;10.00;4.78;;;;;;;;;;1754480;82;21036;-69
2022/03/18 00:29:54;;;;;;;10.63;4.25;;;;;;;;;;1754336;82;21048;-67
2022/03/18 00:32:21;;;;;;;8.43;5.05;;;;;;;;;;1754313;82;21568;-68
2022/03/18 00:34:48;;;;;;;8.58;4.67;;;;;;;;;;1754226;82;21017;-69
2022/03/18 00:37:15;;;;;;;6.40;3.80;;;;;;;;;;1754146;82;21057;-69
2022/03/18 00:39:41;;;;;;;7.05;3.98;;;;;;;;;;1754372;82;21489;-69
2022/03/18 00:42:09;;;;;;;12.75;4.60;;;;;;;;;;1754568;82;21033;-69
2022/03/18 00:44:36;;;;;;;7.70;4.30;;;;;;;;;;1754337;82;21049;-68
2022/03/18 00:47:03;;;;;;;6.42;4.20;;;;;;;;;;1754361;82;21616;-68
2022/03/18 00:52:14;;;;;;;6.75;3.92;;;;;;;;;;1754411;82;21381;-68
2022/03/18 00:54:43;;;;;;;6.30;3.70;;;;;;;;;;1754268;82;21496;-67
2022/03/18 00:57:09;;;;;;;9.50;4.65;;;;;;;;;;1754303;82;21044;-67
2022/03/18 00:59:37;;;;;;;8.10;4.47;;;;;;;;;;1753993;82;21019;-68
2022/03/18 01:04:54;;;;;;;8.53;4.30;;;;;;;;;;1708357;79;72059;-69
2022/03/18 01:07:21;;;;;;;6.80;4.03;;;;;;;;;;1692177;84;21052;-69
2022/03/18 01:09:48;;;;;;;8.10;5.08;;;;;;;;;;1685877;85;21069;-69
2022/03/18 01:12:14;;;;;;;6.83;3.85;;;;;;;;;;1686091;85;21084;-69
2022/03/18 01:14:41;;;;;;;9.50;4.20;;;;;;;;;;1685714;85;21049;-69
2022/03/18 01:19:51;;;;;;;9.03;4.10;;;;;;;;;;1801005;79;23495;-68
2022/03/18 01:22:18;;;;;;;7.62;4.60;;;;;;;;;;1762007;81;21028;-68
2022/03/18 01:24:44;;;;;;;8.10;4.45;;;;;;;;;;1761777;81;21036;-68
2022/03/18 01:27:11;;;;;;;6.87;3.92;;;;;;;;;;1761881;81;21586;-69
2022/03/18 01:29:39;;;;;;;6.50;3.60;;;;;;;;;;1761514;81;21063;-69
2022/03/18 01:32:06;;;;;;;11.33;4.50;;;;;;;;;;1761648;81;21083;-68
2022/03/18 01:34:33;;;;;;;6.03;4.17;;;;;;;;;;1761674;81;20970;-68
2022/03/18 01:36:59;;;;;;;5.37;3.80;;;;;;;;;;1761909;81;21511;-68
2022/03/18 01:39:28;;;;;;;7.45;4.67;;;;;;;;;;1761582;81;21063;-69
2022/03/18 01:41:54;;;;;;;6.67;4.60;;;;;;;;;;1761877;81;21005;-69
2022/03/18 01:44:20;;;;;;;7.78;4.97;;;;;;;;;;1761844;81;21048;-69
2022/03/18 01:46:47;;;;;;;7.83;3.85;;;;;;;;;;1761894;81;21017;-68
2022/03/18 01:49:14;;;;;;;11.40;5.45;;;;;;;;;;1761902;81;21072;-68
2022/03/18 01:51:41;;;;;;;7.60;3.90;;;;;;;;;;1761695;81;21056;-69
2022/03/18 01:56:55;;;;;;;8.28;4.70;;;;;;;;;;1761790;81;21060;-68
2022/03/18 01:59:21;;;;;;;6.00;3.98;;;;;;;;;;1761843;81;21032;-69
2022/03/18 02:01:49;;;;;;;6.20;3.70;;;;;;;;;;1761860;81;21041;-68
2022/03/18 02:04:16;;;;;;;7.17;3.77;;;;;;;;;;1739171;81;21044;-68
2022/03/18 02:06:44;;;;;;;7.45;4.05;;;;;;;;;;1728000;83;21582;-68
2022/03/18 02:09:12;;;;;;;7.53;4.42;;;;;;;;;;1728242;83;21878;-68
2022/03/18 02:11:40;;;;;;;6.22;3.52;;;;;;;;;;1727736;83;21000;-69
2022/03/18 02:14:09;;;;;;;9.03;4.28;;;;;;;;;;1727999;83;21036;-69
2022/03/18 02:16:39;;;;;;;5.55;3.37;;;;;;;;;;1728300;83;21024;-68
2022/03/18 02:19:03;;;;;;;6.95;3.62;;;;;;;;;;1694058;83;21115;-68
2022/03/18 02:21:30;;;;;;;7.95;3.85;;;;;;;;;;1712698;84;21112;-68
2022/03/18 02:23:57;;;;;;;6.53;3.55;;;;;;;;;;1691258;84;21012;-68
2022/03/18 02:26:25;;;;;;;7.83;4.17;;;;;;;;;;1712893;84;21073;-68
2022/03/18 02:28:52;;;;;;;8.20;4.40;;;;;;;;;;1712782;83;21084;-69
2022/03/18 02:31:19;;;;;;;5.72;3.65;;;;;;;;;;1712343;83;21028;-69
2022/03/18 02:33:46;;;;;;;5.42;3.35;;;;;;;;;;1712337;83;21080;-67
2022/03/18 02:36:12;;;;;;;9.58;4.12;;;;;;;;;;1712420;83;21551;-68
2022/03/18 02:38:38;;;;;;;7.42;3.22;;;;;;;;;;1712283;83;21048;-68
2022/03/18 02:41:05;;;;;;;6.90;4.05;;;;;;;;;;1712347;84;21464;-68
2022/03/18 02:43:31;;;;;;;6.58;3.55;;;;;;;;;;1712373;83;21567;-69
2022/03/18 02:45:58;;;;;;;8.40;3.55;;;;;;;;;;1712315;83;20992;-69
2022/03/18 02:48:24;;;;;;;5.78;3.50;;;;;;;;;;1712355;83;21048;-69
2022/03/18 02:50:51;;;;;;;6.83;4.12;;;;;;;;;;1712104;84;21634;-69
2022/03/18 02:53:17;;;;;;;6.22;3.87;;;;;;;;;;1712108;83;21063;-69
2022/03/18 02:55:44;;;;;;;6.30;3.55;;;;;;;;;;1712313;84;21049;-69
2022/03/18 02:58:11;;;;;;;5.67;3.40;;;;;;;;;;1712219;84;21072;-69
2022/03/18 03:00:38;;;;;;;6.92;3.85;;;;;;;;;;1712063;83;21070;-69
2022/03/18 03:03:06;;;;;;;7.15;3.62;;;;;;;;;;1712311;82;21536;-69
2022/03/18 03:08:18;;;;;;;5.87;3.95;;;;;;;;;;1712415;83;21503;-67
2022/03/18 03:10:46;;;;;;;7.28;4.05;;;;;;;;;;1712145;84;21535;-67
2022/03/18 03:13:14;;;;;;;11.70;4.10;;;;;;;;;;1712300;84;21524;-67
2022/03/18 03:15:42;;;;;;;6.90;3.58;;;;;;;;;;1712253;84;21500;-67
2022/03/18 03:18:09;;;;;;;5.85;2.87;;;;;;;;;;1712572;82;21065;-68
2022/03/18 03:20:37;;;;;;;5.50;3.15;;;;;;;;;;1719766;83;21326;-68
2022/03/18 03:23:03;;;;;;;6.67;3.50;;;;;;;;;;1720074;83;21079;-68
2022/03/18 03:25:30;;;;;;;5.22;3.22;;;;;;;;;;1720034;83;21005;-68
2022/03/18 03:27:58;;;;;;;5.95;3.35;;;;;;;;;;1720039;83;21059;-68
2022/03/18 03:30:24;;;;;;;7.12;3.22;;;;;;;;;;1719799;83;21500;-68
2022/03/18 03:32:52;;;;;;;6.55;3.47;;;;;;;;;;1719743;83;21069;-68
2022/03/18 03:35:20;;;;;;;6.47;3.22;;;;;;;;;;1719962;83;21111;-68
2022/03/18 03:37:46;;;;;;;5.95;3.50;;;;;;;;;;1719985;83;21068;-68
2022/03/18 03:40:13;;;;;;;6.17;3.60;;;;;;;;;;1719915;83;21048;-68
2022/03/18 03:42:41;;;;;;;5.67;3.70;;;;;;;;;;1719625;83;20997;-69
2022/03/18 03:45:08;;;;;;;4.90;2.80;;;;;;;;;;1719833;83;21028;-69
2022/03/18 03:47:36;;;;;;;6.00;2.98;;;;;;;;;;1719616;83;21052;-68
2022/03/18 03:50:02;;;;;;;7.65;4.00;;;;;;;;;;1719770;83;21079;-68
2022/03/18 03:52:33;;;;;;;5.72;3.25;;;;;;;;;;1719684;83;21612;-67
2022/03/18 03:54:59;;;;;;;7.65;3.55;;;;;;;;;;1719871;83;21020;-68
2022/03/18 03:57:26;;;;;;;5.95;3.65;;;;;;;;;;1719792;83;21591;-68
2022/03/18 03:59:52;;;;;;;5.03;3.20;;;;;;;;;;1719586;83;21071;-68
2022/03/18 04:02:20;;;;;;;6.00;3.55;;;;;;;;;;1719495;83;21046;-68
2022/03/18 04:04:48;;;;;;;8.35;3.60;;;;;;;;;;1719587;82;21099;-68
2022/03/18 04:07:15;;;;;;;6.50;3.52;;;;;;;;;;1719901;83;21496;-68
2022/03/18 04:09:43;;;;;;;8.88;4.75;;;;;;;;;;1719568;83;21091;-68
2022/03/18 04:12:11;;;;;;;6.33;3.60;;;;;;;;;;1719818;83;21128;-68
2022/03/18 04:14:38;;;;;;;7.67;3.77;;;;;;;;;;1719579;83;21107;-68
2022/03/18 04:17:04;;;;;;;5.03;3.25;;;;;;;;;;1719812;83;21036;-68
2022/03/18 04:19:31;;;;;;;8.23;4.65;;;;;;;;;;1716004;82;21163;-68
2022/03/18 04:21:57;;;;;;;6.00;3.70;;;;;;;;;;1712105;83;21321;-68
2022/03/18 04:24:25;;;;;;;5.20;3.15;;;;;;;;;;1711914;83;21560;-69
2022/03/18 04:26:53;;;;;;;5.20;3.30;;;;;;;;;;1712111;83;21115;-69
2022/03/18 04:29:19;;;;;;;5.33;3.37;;;;;;;;;;1712167;83;21087;-69
2022/03/18 04:31:46;;;;;;;7.70;4.47;;;;;;;;;;1712308;83;21045;-69
2022/03/18 04:34:12;;;;;;;9.15;4.28;;;;;;;;;;1712029;84;21052;-69
2022/03/18 04:36:39;;;;;;;8.20;3.72;;;;;;;;;;1712373;83;21472;-68
2022/03/18 04:39:05;;;;;;;5.45;3.17;;;;;;;;;;1712377;83;21044;-69
2022/03/18 04:41:33;;;;;;;7.72;4.20;;;;;;;;;;1712418;83;21524;-69
2022/03/18 04:44:01;;;;;;;7.00;3.80;;;;;;;;;;1712473;84;21017;-68
2022/03/18 04:46:31;;;;;;;6.87;3.80;;;;;;;;;;1712009;84;21595;-68
2022/03/18 04:48:58;;;;;;;9.00;4.08;;;;;;;;;;1712394;83;21032;-68
2022/03/18 04:51:24;;;;;;;7.22;4.25;;;;;;;;;;1712379;84;21013;-68
2022/03/18 04:53:51;;;;;;;8.48;4.17;;;;;;;;;;1712493;84;21031;-69
2022/03/18 04:59:03;;;;;;;7.25;4.03;;;;;;;;;;1712352;83;21480;-68
2022/03/18 05:01:31;;;;;;;9.53;3.08;;;;;;;;;;1712321;84;21013;-68
2022/03/18 05:03:58;;;;;;;8.75;4.00;;;;;;;;;;1712020;82;21103;-69
2022/03/18 05:06:25;;;;;;;7.42;4.05;;;;;;;;;;1712154;83;20973;-69
2022/03/18 05:08:53;;;;;;;6.03;3.70;;;;;;;;;;1712231;83;21048;-69
2022/03/18 05:11:21;;;;;;;4.47;3.00;;;;;;;;;;1712136;83;21064;-69
2022/03/18 05:13:48;;;;;;;8.38;4.08;;;;;;;;;;1712217;83;21060;-69
2022/03/18 05:16:16;;;;;;;7.08;4.00;;;;;;;;;;1711826;84;21603;-69
2022/03/18 05:18:44;;;;;;;6.97;4.10;;;;;;;;;;1711880;82;21159;-69
2022/03/18 05:21:11;;;;;;;6.28;3.62;;;;;;;;;;1719612;83;20953;-68
2022/03/18 05:23:39;;;;;;;7.00;3.55;;;;;;;;;;1719545;83;21100;-68
2022/03/18 05:26:07;;;;;;;5.92;3.75;;;;;;;;;;1719814;83;21060;-68
2022/03/18 05:28:33;;;;;;;5.08;3.05;;;;;;;;;;1719663;83;21060;-68
2022/03/18 05:31:00;;;;;;;6.25;4.53;;;;;;;;;;1719807;83;21566;-68
2022/03/18 05:33:27;;;;;;;6.40;3.95;;;;;;;;;;1719656;83;21000;-69
2022/03/18 05:35:54;;;;;;;6.80;3.90;;;;;;;;;;1719831;83;21040;-69
2022/03/18 05:38:20;;;;;;;7.00;3.80;;;;;;;;;;1719975;83;21548;-68
2022/03/18 05:40:47;;;;;;;7.25;4.15;;;;;;;;;;1719776;83;20961;-68
2022/03/18 05:43:13;;;;;;;5.25;3.92;;;;;;;;;;1719841;83;21571;-68
2022/03/18 05:45:39;;;;;;;8.78;4.60;;;;;;;;;;1719740;83;21036;-69
2022/03/18 05:48:07;;;;;;;8.60;4.45;;;;;;;;;;1719736;83;21048;-69
2022/03/18 05:50:34;;;;;;;6.60;4.22;;;;;;;;;;1719468;83;21072;-69
2022/03/18 05:53:00;;;;;;;5.35;3.60;;;;;;;;;;1719857;83;21047;-69
2022/03/18 05:56:52;;;;;;;6.50;3.98;;;;;;;;;;1719855;83;21500;-68
2022/03/18 05:57:55;;;;;;;8.25;4.20;;;;;;;;;;1715544;83;21024;-68
2022/03/18 06:00:23;;;;;;;8.23;4.03;;;;;;;;;;1719546;83;21099;-69
2022/03/18 06:02:50;;;;;;;7.10;3.98;;;;;;;;;;1719918;82;21067;-69
2022/03/18 06:05:17;;;;;;;6.42;3.47;;;;;;;;;;1720017;83;21337;-70
2022/03/18 06:07:45;;;;;;;6.35;3.95;;;;;;;;;;1719817;83;21076;-70
2022/03/18 06:12:58;;;;;;;4.50;2.87;;;;;;;;;;1719797;83;21056;-70
2022/03/18 06:15:25;;;;;;;6.22;3.25;;;;;;;;;;1720129;83;21107;-70
2022/03/18 06:17:52;;;;;;;5.58;3.40;;;;;;;;;;1720010;82;21572;-70
2022/03/18 06:20:19;;;;;;;6.08;3.40;;;;;;;;;;1715664;83;21033;-70
2022/03/18 06:22:46;;;;;;;6.25;3.37;;;;;;;;;;1712213;84;21032;-70
2022/03/18 06:25:13;;;;;;;7.28;3.22;;;;;;;;;;1712468;83;21020;-70
2022/03/18 06:27:39;;;;;;;6.30;3.05;;;;;;;;;;1712465;83;21393;-69
2022/03/18 06:30:06;;;;;;;5.37;3.05;;;;;;;;;;1712359;83;20981;-69
2022/03/18 06:32:32;;;;;;;6.33;3.08;;;;;;;;;;1712452;84;20982;-70
2022/03/18 06:34:59;;;;;;;6.58;3.80;;;;;;;;;;1712323;83;22096;-70
2022/03/18 06:37:26;;;;;;;6.92;3.40;;;;;;;;;;1712389;83;21037;-68
2022/03/18 06:39:53;;;;;;;5.90;4.12;;;;;;;;;;1712176;83;21515;-70
2022/03/18 06:42:19;;;;;;;5.62;3.62;;;;;;;;;;1712296;84;21036;-69
2022/03/18 06:44:46;;;;;;;6.58;3.30;;;;;;;;;;1712347;83;20997;-70
2022/03/18 06:47:12;;;;;;;7.80;4.28;;;;;;;;;;1712288;84;21033;-70
2022/03/18 06:49:40;;;;;;;7.40;4.03;;;;;;;;;;1712243;83;21543;-70
2022/03/18 06:52:08;;;;;;;7.25;3.67;;;;;;;;;;1712300;83;21531;-70
2022/03/18 06:54:36;;;;;;;6.58;3.67;;;;;;;;;;1712074;83;21067;-70
2022/03/18 06:57:02;;;;;;;6.62;3.47;;;;;;;;;;1712247;83;21017;-70
2022/03/18 06:59:29;;;;;;;7.50;3.95;;;;;;;;;;1712037;84;21044;-70
2022/03/18 07:01:56;;;;;;;8.10;3.85;;;;;;;;;;1712330;83;21080;-70
2022/03/18 07:04:22;;;;;;;6.83;3.70;;;;;;;;;;1711979;82;21076;-70
2022/03/18 07:06:49;;;;;;;9.20;4.15;;;;;;;;;;1712180;83;21037;-70
2022/03/18 07:09:15;;;;;;;7.25;4.30;;;;;;;;;;1712125;83;21044;-70
2022/03/18 07:11:41;;;;;;;5.72;3.95;;;;;;;;;;1712048;83;21032;-69
2022/03/18 07:14:09;;;;;;;7.58;3.55;;;;;;;;;;1712127;84;21096;-69
2022/03/18 07:19:23;;;;;;;5.78;3.10;;;;;;;;;;1711768;82;22190;-70
2022/03/18 07:21:56;;;;;;;;;;;;;;;;;;1694305;84;21064;-70
2022/03/18 07:24:23;;;;;;;7.55;4.15;;;;;;;;;;1712281;84;20128;-69
2022/03/18 07:26:49;;;;;;;8.80;3.92;;;;;;;;;;1712289;83;21004;-69
2022/03/18 07:29:16;;;;;;;5.95;3.77;;;;;;;;;;1712379;83;21032;-71
2022/03/18 07:31:46;;;;;;;4.17;2.95;;;;;;;;;;1712074;84;21049;-72
2022/03/18 07:34:14;;;;;;;7.15;3.62;;;;;;;;;;1712216;83;21119;-70
2022/03/18 07:36:40;;;;;;;5.67;3.40;;;;;;;;;;1712057;84;21045;-71
2022/03/18 07:39:07;;;;;;;8.08;3.65;;;;;;;;;;1712378;84;21052;-70
2022/03/18 07:41:35;;;;;;;6.08;3.27;;;;;;;;;;1711963;84;21567;-70
2022/03/18 07:44:02;;;;;;;5.45;3.35;;;;;;;;;;1712370;83;21024;-70
2022/03/18 07:46:29;;;;;;;6.12;3.42;;;;;;;;;;1712109;83;21076;-68
2022/03/18 07:48:55;;;;;;;7.97;3.70;;;;;;;;;;1712242;83;21052;-68
2022/03/18 07:51:23;;;;;;;6.70;3.87;;;;;;;;;;1712351;83;21032;-70
2022/03/18 07:53:50;;;;;;;6.05;4.03;;;;;;;;;;1712139;83;21045;-71
2022/03/18 07:56:17;;;;;;;6.15;3.67;;;;;;;;;;1712317;84;21533;-71
2022/03/18 07:58:43;;;;;;;5.33;3.42;;;;;;;;;;1712333;83;21028;-71
2022/03/18 08:01:11;;;;;;;4.80;3.37;;;;;;;;;;1712114;83;21083;-70
2022/03/18 08:03:40;;;;;;;8.30;3.35;;;;;;;;;;1712024;82;21361;-71
2022/03/18 08:06:10;;;;;;;7.30;3.67;;;;;;;;;;1712175;83;21103;-70
2022/03/18 08:08:37;;;;;;;6.58;3.98;;;;;;;;;;1712286;84;21270;-70
2022/03/18 08:11:05;;;;;;;11.55;4.17;;;;;;;;;;1712101;83;21150;-71
2022/03/18 08:13:31;;;;;;;6.47;3.83;;;;;;;;;;1712347;84;21076;-71
2022/03/18 08:16:01;;;;;;;5.65;3.27;;;;;;;;;;1712169;83;21599;-71
2022/03/18 08:18:30;;;;;;;6.03;3.25;;;;;;;;;;1712114;82;21119;-71
2022/03/18 08:20:56;;;;;;;4.97;3.35;;;;;;;;;;1716584;83;21084;-71
2022/03/18 08:23:25;;;;;;;8.35;3.35;;;;;;;;;;1719797;83;21071;-71
2022/03/18 08:25:52;;;;;;;9.50;3.60;;;;;;;;;;1719573;83;21358;-71
2022/03/18 08:28:20;;;;;;;5.45;3.22;;;;;;;;;;1719710;83;21056;-71
2022/03/18 08:30:46;;;;;;;4.65;3.33;;;;;;;;;;1719909;83;21020;-71
2022/03/18 08:33:13;;;;;;;5.17;2.77;;;;;;;;;;1720315;83;21000;-71
2022/03/18 08:35:41;;;;;;;7.95;3.25;;;;;;;;;;1719702;83;21589;-72
2022/03/18 08:38:09;;;;;;;5.58;3.30;;;;;;;;;;1720088;83;21546;-72
2022/03/18 08:40:36;;;;;;;6.87;3.50;;;;;;;;;;1719845;83;21044;-73
2022/03/18 08:43:05;;;;;;;5.62;2.90;;;;;;;;;;1719878;83;21064;-71
2022/03/18 08:45:31;;;;;;;6.90;3.95;;;;;;;;;;1719511;83;21633;-74
2022/03/18 08:47:58;;;;;;;7.67;3.83;;;;;;;;;;1719987;83;21056;-72
2022/03/18 08:50:24;;;;;;;4.75;2.83;;;;;;;;;;1719534;83;21040;-73
2022/03/18 08:52:53;;;;;;;5.60;3.00;;;;;;;;;;1719973;83;21005;-71
2022/03/18 08:55:20;;;;;;;5.95;3.30;;;;;;;;;;1719698;83;21035;-71
2022/03/18 08:57:47;;;;;;;8.13;3.33;;;;;;;;;;1719915;83;21025;-72
2022/03/18 09:00:17;;;;;;;9.20;3.77;;;;;;;;;;1719532;83;21068;-71
2022/03/18 09:02:45;;;;;;;8.93;3.65;;;;;;;;;;1719957;82;21095;-71
2022/03/18 09:05:11;;;;;;;5.37;3.10;;;;;;;;;;1719854;83;21075;-71
2022/03/18 09:07:38;;;;;;;6.12;3.37;;;;;;;;;;1719925;83;21043;-70
2022/03/18 09:10:05;;;;;;;5.92;3.00;;;;;;;;;;1719765;83;21036;-71
2022/03/18 09:12:32;;;;;;;5.08;3.17;;;;;;;;;;1719642;83;21888;-70
2022/03/18 09:15:02;;;;;;;6.78;3.50;;;;;;;;;;1720087;83;21099;-69
2022/03/18 09:17:28;;;;;;;5.53;3.47;;;;;;;;;;1719737;82;21112;-73
2022/03/18 09:19:55;;;;;;;5.60;3.22;;;;;;;;;;1719937;83;21059;-71
2022/03/18 09:22:22;;;;;;;6.15;3.33;;;;;;;;;;1719685;83;21028;-71
2022/03/18 09:24:48;;;;;;;6.12;3.40;;;;;;;;;;1720097;83;21032;-71
2022/03/18 09:27:16;;;;;;;6.45;3.47;;;;;;;;;;1719905;83;20997;-71
2022/03/18 09:29:43;;;;;;;6.85;3.60;;;;;;;;;;1720189;83;21008;-72
2022/03/18 09:32:09;;;;;;;5.83;3.05;;;;;;;;;;1719836;83;21044;-70
2022/03/18 09:34:36;;;;;;;4.85;3.15;;;;;;;;;;1719869;83;21025;-71
2022/03/18 09:37:03;;;;;;;6.45;3.50;;;;;;;;;;1719451;83;21076;-72
2022/03/18 09:39:29;;;;;;;6.10;3.08;;;;;;;;;;1719906;83;21551;-72
2022/03/18 09:41:56;;;;;;;5.50;3.40;;;;;;;;;;1719797;83;21036;-71
2022/03/18 09:44:23;;;;;;;6.08;3.25;;;;;;;;;;1719883;83;21103;-71
2022/03/18 09:46:51;;;;;;;4.10;2.77;;;;;;;;;;1719592;83;21661;-71
2022/03/18 09:49:18;;;;;;;6.50;2.90;;;;;;;;;;1720017;83;21519;-70
2022/03/18 09:51:45;;;;;;;7.83;2.52;;;;;;;;;;1719663;83;21083;-71
2022/03/18 09:54:15;;;;;;;3.77;2.80;;;;;;;;;;1717700;83;21540;-71
2022/03/18 09:56:42;;;;;;;4.42;2.90;;;;;;;;;;1719870;83;21012;-71
2022/03/18 09:59:09;;;;;;;4.33;3.15;;;;;;;;;;1719714;83;21599;-72
2022/03/18 10:01:35;;;;;;;6.85;3.45;;;;;;;;;;1719998;83;21028;-71
2022/03/18 10:04:10;;;;;;;3.90;2.72;;;;;;;;;;1719571;82;21099;-72
2022/03/18 10:06:38;;;;;;;3.95;2.87;;;;;;;;;;1719807;83;20994;-71
2022/03/18 10:09:05;;;;;;;5.47;3.27;;;;;;;;;;1719836;83;21025;-70
2022/03/18 10:11:33;;;;;;;5.65;2.90;;;;;;;;;;1719559;83;21063;-71
2022/03/18 10:14:04;;;;;;;6.75;2.95;;;;;;;;;;1719772;83;21064;-71
2022/03/18 10:16:38;;;;;;;6.20;3.02;;;;;;;;;;1719515;83;21087;-71
2022/03/18 10:19:18;;;;;;;10.72;3.72;;;;;;;;;;1719837;82;21567;-71
2022/03/18 10:21:49;;;;;;;4.92;3.10;;;;;;;;;;1714777;83;21001;-71
2022/03/18 10:24:16;;;;;;;5.25;2.72;;;;;;;;;;1712408;83;21044;-72
2022/03/18 10:26:43;;;;;;;5.20;3.20;;;;;;;;;;1712259;84;21543;-71
2022/03/18 10:29:11;;;;;;;5.08;2.92;;;;;;;;;;1712074;84;21052;-71
2022/03/18 10:31:45;;;;;;;5.60;3.60;;;;;;;;;;1712224;83;21074;-71
2022/03/18 10:37:11;;;;;;;5.10;2.95;;;;;;;;;;1712254;83;21001;-70
2022/03/18 10:39:43;;;;;;;6.70;3.80;;;;;;;;;;1712147;83;21064;-71
2022/03/18 10:42:10;;;;;;;7.05;3.72;;;;;;;;;;1712313;84;21017;-71
2022/03/18 10:44:51;;;;;;;6.45;3.87;;;;;;;;;;1712055;83;21056;-71
2022/03/18 10:47:37;;;;;;;6.65;2.98;;;;;;;;;;1712458;84;21012;-70
2022/03/18 10:50:14;;;;;;;7.15;3.27;;;;;;;;;;1712244;84;21066;-70
2022/03/18 10:52:42;;;;;;;7.95;4.30;;;;;;;;;;1712488;83;20989;-70
2022/03/18 10:55:17;;;;;;;11.83;4.90;;;;;;;;;;1712202;83;21068;-71
2022/03/18 10:57:48;;;;;;;9.90;4.70;;;;;;;;;;1712384;84;21036;-71
2022/03/18 11:00:15;;;;;;;15.20;5.00;;;;;;;;;;1711634;82;21103;-70
2022/03/18 11:02:43;;;;;;;12.93;6.65;;;;;;;;;;1712296;82;21480;-71
2022/03/18 11:05:10;;;;;;;22.85;9.73;;;;;;;;;;1712060;84;21103;-70
2022/03/18 11:07:41;;;;;;;23.75;9.58;;;;;;;;;;1712032;83;21100;-70
2022/03/18 11:12:51;;;;;;;22.80;9.53;;;;;;;;;;1712363;83;21025;-69
2022/03/18 11:15:18;;;;;;;18.23;8.50;;;;;;;;;;1690838;84;21588;-71
2022/03/18 11:17:45;;;;;;;17.30;7.62;;;;;;;;;;1712169;82;21044;-70
2022/03/18 11:20:12;;;;;;;17.65;7.40;;;;;;;;;;1712296;84;21059;-70
2022/03/18 11:22:40;;;;;;;12.58;5.22;;;;;;;;;;1718891;83;21072;-70
2022/03/18 11:25:09;;;;;;;15.85;5.67;;;;;;;;;;1719989;83;21040;-71
2022/03/18 11:27:37;;;;;;;18.42;8.20;;;;;;;;;;1719739;83;21524;-71
2022/03/18 11:30:23;;;;;;;15.40;7.20;;;;;;;;;;1719866;83;21107;-72
2022/03/18 11:32:52;;;;;;;14.45;6.80;;;;;;;;;;1719843;83;21047;-71
2022/03/18 11:35:20;;;;;;;13.08;6.28;;;;;;;;;;1714557;83;21111;-72
2022/03/18 11:37:52;;;;;;;13.90;6.33;;;;;;;;;;1719926;83;21044;-71
2022/03/18 11:40:19;;;;;;;14.40;7.12;;;;;;;;;;1717144;83;21651;-72
2022/03/18 11:42:48;;;;;;;12.93;5.67;;;;;;;;;;1719568;83;21081;-71
2022/03/18 11:45:26;;;;;;;10.82;5.40;;;;;;;;;;1719906;83;21036;-71
2022/03/18 11:47:53;;;;;;;6.80;4.28;;;;;;;;;;1718897;82;21072;-71
2022/03/18 11:50:22;;;;;;;12.43;5.08;;;;;;;;;;1719788;83;21465;-71
2022/03/18 11:52:56;;;;;;;7.62;4.25;;;;;;;;;;1717194;83;21107;-71
2022/03/18 11:55:23;;;;;;;8.85;4.40;;;;;;;;;;1720017;83;21562;-71
2022/03/18 11:57:50;;;;;;;10.00;4.72;;;;;;;;;;1719723;83;21040;-71
2022/03/18 12:00:42;;;;;;;7.20;3.87;;;;;;;;;;1719853;83;21025;-71
2022/03/18 12:03:06;;;;;;;7.85;4.20;;;;;;;;;;1719173;82;21116;-70
2022/03/18 12:05:33;;;;;;;4.92;2.95;;;;;;;;;;1720133;83;21496;-70
2022/03/18 12:08:03;;;;;;;8.30;3.60;;;;;;;;;;1719946;83;21496;-70
2022/03/18 12:10:43;;;;;;;5.72;3.40;;;;;;;;;;1719635;83;21079;-70
2022/03/18 12:13:11;;;;;;;5.97;3.35;;;;;;;;;;1719913;83;21033;-70
2022/03/18 12:15:39;;;;;;;6.15;3.42;;;;;;;;;;1719605;83;21277;-70
2022/03/18 12:18:08;;;;;;;5.55;3.58;;;;;;;;;;1719837;82;21075;-70
2022/03/18 12:20:35;;;;;;;6.65;3.22;;;;;;;;;;1720026;83;21025;-70
2022/03/18 12:23:02;;;;;;;4.62;2.90;;;;;;;;;;1712421;83;21571;-70
2022/03/18 12:25:30;;;;;;;5.15;2.92;;;;;;;;;;1712306;83;21028;-70
2022/03/18 12:27:56;;;;;;;5.33;2.77;;;;;;;;;;1712340;83;21052;-70
2022/03/18 12:30:25;;;;;;;6.62;2.70;;;;;;;;;;1712419;84;21016;-70
2022/03/18 12:32:55;;;;;;;5.15;2.80;;;;;;;;;;1712153;84;21068;-70
2022/03/18 12:35:26;;;;;;;7.70;2.85;;;;;;;;;;1711942;83;21634;-70
2022/03/18 12:38:04;;;;;;;6.65;3.17;;;;;;;;;;1712060;83;21013;-70
2022/03/18 12:40:32;;;;;;;4.40;3.00;;;;;;;;;;1712032;83;21071;-70
2022/03/18 12:42:59;;;;;;;5.95;3.02;;;;;;;;;;1712038;84;21021;-71
2022/03/18 12:45:29;;;;;;;8.15;3.60;;;;;;;;;;1712009;83;21092;-71
2022/03/18 12:47:58;;;;;;;7.53;3.95;;;;;;;;;;1712092;83;21100;-72
2022/03/18 12:50:26;;;;;;;7.75;3.47;;;;;;;;;;1712074;84;21614;-71
2022/03/18 12:52:53;;;;;;;7.87;4.25;;;;;;;;;;1711900;84;21012;-71
2022/03/18 12:55:22;;;;;;;7.15;4.12;;;;;;;;;;1711930;83;21032;-72
2022/03/18 12:57:49;;;;;;;5.42;3.72;;;;;;;;;;1712035;83;21123;-72
2022/03/18 13:00:18;;;;;;;9.00;4.28;;;;;;;;;;1712181;83;21096;-72
2022/03/18 13:02:44;;;;;;;11.30;5.70;;;;;;;;;;1712044;82;21061;-71
2022/03/18 13:05:15;;;;;;;7.53;5.10;;;;;;;;;;1712265;83;21040;-72
2022/03/18 13:07:40;;;;;;;9.30;4.97;;;;;;;;;;1711895;84;21096;-71
2022/03/18 13:10:07;;;;;;;6.72;4.65;;;;;;;;;;1712247;83;21063;-72
2022/03/18 13:12:35;;;;;;;10.63;6.42;;;;;;;;;;1711828;83;21064;-71
2022/03/18 13:15:15;;;;;;;11.08;5.75;;;;;;;;;;1712110;83;21048;-71
2022/03/18 13:17:41;;;;;;;11.78;6.58;;;;;;;;;;1711920;82;21072;-71
2022/03/18 13:20:10;;;;;;;10.48;6.35;;;;;;;;;;1712168;83;21616;-72
2022/03/18 13:22:36;;;;;;;13.58;8.08;;;;;;;;;;1715740;83;21068;-71
2022/03/18 13:25:04;;;;;;;11.35;8.08;;;;;;;;;;1719813;83;21056;-71
2022/03/18 13:27:31;;;;;;;13.93;8.70;;;;;;;;;;1719456;83;21032;-71
2022/03/18 13:32:51;;;;;;;11.90;7.42;;;;;;;;;;1719831;83;21047;-71
2022/03/18 13:36:44;;;;;;;18.62;11.57;;;;;;;;;;1819871;79;22787;-69
2022/03/18 13:39:13;;;;;;;20.12;12.68;;;;;;;;;;1793111;80;21036;-70
2022/03/18 13:41:52;;;;;;;22.58;12.98;;;;;;;;;;1791887;80;21084;-70
2022/03/18 13:44:19;;;;;;;24.35;14.25;;;;;;;;;;1793146;80;21551;-71
2022/03/18 13:47:02;;;;;;;19.92;12.50;;;;;;;;;;1792888;80;21104;-71
2022/03/18 13:49:29;;;;;;;15.93;10.40;;;;;;;;;;1793483;80;21043;-70
2022/03/18 13:51:59;;;;;;;17.12;10.82;;;;;;;;;;1792938;80;21071;-70
2022/03/18 13:54:25;;;;;;;16.12;10.88;;;;;;;;;;1793260;80;21064;-71
2022/03/18 13:57:00;;;;;;;17.17;11.12;;;;;;;;;;1792744;80;21512;-71
2022/03/18 13:59:27;;;;;;;16.30;11.03;;;;;;;;;;1791427;80;21036;-70
2022/03/18 14:02:04;;;;;;;15.65;9.43;;;;;;;;;;1792989;80;21092;-70
2022/03/18 14:04:37;;;;;;;14.60;9.60;;;;;;;;;;1792874;80;21064;-70
2022/03/18 14:07:05;;;;;;;14.43;9.45;;;;;;;;;;1793246;80;21032;-70
2022/03/18 14:09:32;;;;;;;13.78;8.83;;;;;;;;;;1792924;80;21126;-69
2022/03/18 14:12:09;;;;;;;14.05;9.10;;;;;;;;;;1793216;80;21032;-69
2022/03/18 14:14:38;;;;;;;12.03;7.22;;;;;;;;;;1792830;80;21120;-70
2022/03/18 14:17:14;;;;;;;9.48;6.42;;;;;;;;;;1793118;80;21028;-70
2022/03/18 14:19:45;;;;;;;10.15;6.50;;;;;;;;;;1793289;80;21016;-70
2022/03/18 14:22:30;;;;;;;9.03;5.47;;;;;;;;;;1773711;80;21560;-70
2022/03/18 14:24:57;;;;;;;6.37;4.35;;;;;;;;;;1793050;80;21020;-70
2022/03/18 14:27:24;;;;;;;6.87;4.78;;;;;;;;;;1793041;80;21580;-70
2022/03/18 14:29:51;;;;;;;9.63;5.92;;;;;;;;;;1792986;80;21020;-71
2022/03/18 14:32:17;;;;;;;10.63;6.47;;;;;;;;;;1793132;80;21028;-72
2022/03/18 14:34:45;;;;;;;8.25;5.83;;;;;;;;;;1792233;79;21107;-72
2022/03/18 14:37:12;;;;;;;8.05;4.72;;;;;;;;;;1785196;80;21052;-72
2022/03/18 14:39:39;;;;;;;8.73;5.20;;;;;;;;;;1785209;80;21029;-71
2022/03/18 14:42:05;;;;;;;9.75;6.05;;;;;;;;;;1785491;80;21052;-73
2022/03/18 14:44:35;;;;;;;6.30;4.08;;;;;;;;;;1785089;80;21028;-71
2022/03/18 14:47:02;;;;;;;6.30;3.52;;;;;;;;;;1784989;80;21076;-70
2022/03/18 14:49:28;;;;;;;9.83;5.97;;;;;;;;;;1784849;80;21005;-71
2022/03/18 14:51:55;;;;;;;14.53;8.45;;;;;;;;;;1784898;80;21034;-70
2022/03/18 14:56:17;;;;;;;11.43;6.85;;;;;;;;;;1784761;80;21028;-70
2022/03/18 14:56:49;;;;;;;8.28;4.95;;;;;;;;;;1780498;80;21032;-70
2022/03/18 14:59:16;;;;;;;7.20;4.22;;;;;;;;;;1784656;80;21516;-70
2022/03/18 15:01:43;;;;;;;7.28;3.80;;;;;;;;;;1784723;80;21037;-70
2022/03/18 15:04:09;;;;;;;8.45;3.22;;;;;;;;;;1784393;80;21208;-70
2022/03/18 15:06:40;;;;;;;4.62;2.80;;;;;;;;;;1784658;80;21096;-70
2022/03/18 15:09:05;;;;;;;6.58;3.17;;;;;;;;;;1784223;80;21481;-71
2022/03/18 15:11:32;;;;;;;8.03;3.70;;;;;;;;;;1784702;80;21032;-71
2022/03/18 15:13:59;;;;;;;4.70;3.02;;;;;;;;;;1784623;80;21001;-70
2022/03/18 15:16:28;;;;;;;5.47;3.67;;;;;;;;;;1784700;80;21061;-70